Black Watch — C6RS5 — position and weather

sailwx.info

Track history (hours):
 
Tides and Currents Weather Stations Pressure Air Temp Water Temp Dewpoint Dewpoint Depression Visibility Wind Speed Wind Dir Waves Ship Positions

Black Watch

Last reported at 2017-Dec-11 16:59 UTC. Time now 2017-Dec-12 08:10 UTC.
Position N 53°07' E 008°45'.

Length 205 m; draft 7.5 m.

Type: Passenger vessel. MMSI: 311166000.

Date/timePositionNaut miles runAvg speedWind from/ knotsBaromVisibWave heightAir tempDewpointWater temp
2017-Dec-11 16:59N 53°07' E 008°45'0 0.0
2017-Dec-11 16:29N 53°07' E 008°45'0 0.0
2017-Dec-11 15:59N 53°07' E 008°45'0 0.0
2017-Dec-11 15:29N 53°07' E 008°45'0 0.0
2017-Dec-11 14:59N 53°07' E 008°45'0 0.0
2017-Dec-11 14:29N 53°07' E 008°45'0 0.0
2017-Dec-11 13:59N 53°07' E 008°45'0 0.0
2017-Dec-11 13:29N 53°07' E 008°45'0 0.0
2017-Dec-11 12:59N 53°07' E 008°45'0 0.0
2017-Dec-11 12:29N 53°07' E 008°45'0 0.0
2017-Dec-11 11:59N 53°07' E 008°45'0 0.0
2017-Dec-11 11:29N 53°07' E 008°45'0 0.0
2017-Dec-11 10:59N 53°07' E 008°45'0 0.0
2017-Dec-11 10:29N 53°07' E 008°45'0 0.0
2017-Dec-11 09:59N 53°07' E 008°45'0 0.0
2017-Dec-11 09:29N 53°07' E 008°45'0 0.0
2017-Dec-11 08:59N 53°07' E 008°45'0 0.0
2017-Dec-11 08:29N 53°07' E 008°45'0 0.0
2017-Dec-11 07:59N 53°07' E 008°45'0 0.0
2017-Dec-11 07:29N 53°07' E 008°45'0 0.0
2017-Dec-11 06:59N 53°07' E 008°45'0 0.0
2017-Dec-11 06:29N 53°07' E 008°45'0 0.0
2017-Dec-11 05:59N 53°07' E 008°45'0 0.0
2017-Dec-11 05:29N 53°07' E 008°45'0 0.0
2017-Dec-11 04:59N 53°07' E 008°45'0 0.0
2017-Dec-11 04:29N 53°07' E 008°45'0 0.0
2017-Dec-11 03:59N 53°07' E 008°45'0 0.0
2017-Dec-11 03:29N 53°07' E 008°45'0 0.0
2017-Dec-11 02:59N 53°07' E 008°45'0 0.0
2017-Dec-11 02:29N 53°07' E 008°45'0 0.0
2017-Dec-11 01:59N 53°07' E 008°45'0 0.0
2017-Dec-11 01:29N 53°07' E 008°45'0 0.0
2017-Dec-11 00:59N 53°07' E 008°45'0 0.0
2017-Dec-11 00:29N 53°07' E 008°45'0 0.0
2017-Dec-10 23:59N 53°07' E 008°45'0 0.0
2017-Dec-10 23:29N 53°07' E 008°45'0 0.0
2017-Dec-10 22:59N 53°07' E 008°45'0 0.0
2017-Dec-10 22:29N 53°07' E 008°45'0 0.0
2017-Dec-10 21:59N 53°07' E 008°45'0 0.0
2017-Dec-10 21:29N 53°07' E 008°45'0 0.0
2017-Dec-10 20:59N 53°07' E 008°45'0 0.0
2017-Dec-10 20:29N 53°07' E 008°45'0 0.0
2017-Dec-10 19:59N 53°07' E 008°45'0 0.0
2017-Dec-10 19:30N 53°07' E 008°45'0 0.3
2017-Dec-10 19:00N 53°06' E 008°45'3 6.0
2017-Dec-10 18:31N 53°07' E 008°40'4 8.6
2017-Dec-10 18:01N 53°10' E 008°35'510.0
2017-Dec-10 17:30N 53°14' E 008°29'612.4
2017-Dec-10 17:01N 53°20' E 008°30'714.4
2017-Dec-10 16:30N 53°27' E 008°29'611.5
2017-Dec-10 16:01N 53°32' E 008°34'611.1
2017-Dec-10 15:31N 53°37' E 008°29'917.9
2017-Dec-10 15:00N 53°43' E 008°17'917.8
2017-Dec-10 14:30N 53°49' E 008°07'917.1
2017-Dec-10 14:00N 53°52' E 007°53'5 9.2
2017-Dec-10 13:28N 53°57' E 007°53'511.5
2017-Dec-10 13:00N 53°59' E 008°01'810.2
2017-Dec-10 12:11N 54°01' E 008°15'211.8
2017-Dec-10 11:59N 54°00' E 008°19'715.2
2017-Dec-10 11:30N 53°58' E 008°31'815.7
2017-Dec-10 11:00N 53°54' E 008°42'815.3
2017-Dec-10 10:30N 53°51' E 008°54'816.8
2017-Dec-10 10:01N 53°53' E 009°07'713.0
2017-Dec-10 09:30N 53°52' E 009°18'816.0
2017-Dec-10 09:00N 53°45' E 009°25'714.1
2017-Dec-10 08:30N 53°39' E 009°31'713.4
2017-Dec-10 08:00N 53°34' E 009°40'510.2
2017-Dec-10 07:31N 53°33' E 009°48'4 8.7
2017-Dec-10 07:00N 53°33' E 009°55'1 2.0
2017-Dec-10 06:29N 53°32' E 009°57'1 1.2
2017-Dec-10 06:00N 53°33' E 009°56'0 0.0
2017-Dec-10 05:30N 53°33' E 009°56'0 0.0
2017-Dec-10 05:00N 53°33' E 009°56'0 0.0
2017-Dec-10 04:30N 53°33' E 009°56'0 0.0
2017-Dec-10 04:00N 53°33' E 009°56'0 0.0
2017-Dec-10 03:30N 53°33' E 009°56'0 0.0
2017-Dec-10 03:00N 53°33' E 009°56'0 0.0
2017-Dec-10 02:30N 53°33' E 009°56'0 0.0
2017-Dec-10 02:00N 53°33' E 009°56'0 0.0
2017-Dec-10 01:30N 53°33' E 009°56'0 0.0
2017-Dec-10 01:00N 53°33' E 009°56'0 0.0
2017-Dec-10 00:30N 53°33' E 009°56'0 0.0
2017-Dec-10 00:00N 53°33' E 009°56'0 0.0
2017-Dec-09 23:30N 53°33' E 009°56'0 0.0
2017-Dec-09 23:00N 53°33' E 009°56'0 0.0
2017-Dec-09 22:30N 53°33' E 009°56'0 0.0
2017-Dec-09 22:00N 53°33' E 009°56'0 0.0
2017-Dec-09 21:30N 53°33' E 009°56'0 0.0
2017-Dec-09 21:00N 53°33' E 009°56'0 0.0
2017-Dec-09 20:30N 53°33' E 009°56'0 0.0
2017-Dec-09 20:00N 53°33' E 009°56'0 0.0
2017-Dec-09 19:27N 53°33' E 009°56'0 0.0
2017-Dec-09 19:00N 53°33' E 009°56'0 0.0
2017-Dec-09 18:30N 53°33' E 009°56'0 0.0
2017-Dec-09 18:00N 53°33' E 009°56'0 0.0
2017-Dec-09 17:30N 53°33' E 009°56'0 0.0
2017-Dec-09 17:00N 53°33' E 009°56'0 0.0
2017-Dec-09 16:30N 53°33' E 009°56'0 0.0
2017-Dec-09 16:00N 53°33' E 009°56'0 0.0
2017-Dec-09 15:30N 53°33' E 009°56'0 0.0
2017-Dec-09 14:57N 53°33' E 009°56'0 0.0
2017-Dec-09 14:30N 53°33' E 009°56'0 0.0
2017-Dec-09 14:00N 53°33' E 009°56'0 0.0
2017-Dec-09 13:27N 53°33' E 009°56'0 0.0
2017-Dec-09 13:00N 53°33' E 009°56'0 0.0
2017-Dec-09 12:30N 53°33' E 009°56'0 0.0
2017-Dec-09 12:00N 53°33' E 009°56'0 0.0
2017-Dec-09 11:30N 53°33' E 009°56'0 0.0
2017-Dec-09 11:00N 53°33' E 009°56'0 0.0
2017-Dec-09 10:30N 53°33' E 009°56'0 0.0
2017-Dec-09 10:00N 53°33' E 009°56'0 0.0
2017-Dec-09 09:30N 53°33' E 009°56'0 0.0
2017-Dec-09 09:00N 53°33' E 009°56'0 0.0
2017-Dec-09 08:27N 53°33' E 009°56'0 0.0
2017-Dec-09 08:00N 53°33' E 009°56'0 0.0
2017-Dec-09 07:30N 53°33' E 009°56'0 0.0
2017-Dec-09 07:00N 53°33' E 009°56'0 0.0
2017-Dec-09 06:31N 53°33' E 009°56'2 4.3
2017-Dec-09 06:01N 53°32' E 009°53'4 8.6
2017-Dec-09 05:31N 53°34' E 009°46'612.0
2017-Dec-09 05:01N 53°36' E 009°36'612.7
2017-Dec-09 04:30N 53°41' E 009°30'612.3
2017-Dec-09 04:01N 53°46' E 009°24'713.1
2017-Dec-09 03:30N 53°51' E 009°18'612.7
2017-Dec-09 03:01N 53°53' E 009°08'611.5
2017-Dec-09 02:30N 53°51' E 008°59'612.5
2017-Dec-09 02:00N 53°50' E 008°48'612.2
2017-Dec-09 01:30N 53°55' E 008°41'611.9
2017-Dec-09 01:00N 53°58' E 008°32'713.4
2017-Dec-09 00:30N 53°60' E 008°21'612.3
2017-Dec-09 00:00N 53°59' E 008°11'510.4
2017-Dec-08 23:30N 53°59' E 008°02'4 7.2
2017-Dec-08 23:00N 53°59' E 007°56'4 8.9
2017-Dec-08 22:30N 53°58' E 007°48'510.2
2017-Dec-08 22:00N 53°57' E 007°40'510.6
2017-Dec-08 21:30N 53°55' E 007°31'510.4
2017-Dec-08 21:00N 53°54' E 007°23'66 9.6
2017-Dec-08 14:05N 53°35' E 005°35'210.2
2017-Dec-08 13:50N 53°34' E 005°31'310.0
2017-Dec-08 13:31N 53°33' E 005°26'510.3
2017-Dec-08 13:01N 53°32' E 005°18'5 9.7
2017-Dec-08 12:31N 53°30' E 005°10'5 9.7
2017-Dec-08 12:01N 53°29' E 005°02'5 9.4
2017-Dec-08 11:30N 53°27' E 004°55'510.9
2017-Dec-08 11:01N 53°25' E 004°47'510.5
2017-Dec-08 10:30N 53°21' E 004°41'610.6
2017-Dec-08 09:55N 53°16' E 004°35'511.5
2017-Dec-08 09:30N 53°11' E 004°32'611.8
2017-Dec-08 09:01N 53°06' E 004°27'612.4
2017-Dec-08 08:31N 53°01' E 004°22'612.4
2017-Dec-08 08:01N 52°55' E 004°17'612.5
2017-Dec-08 07:31N 52°50' E 004°12'612.8
2017-Dec-08 07:01N 52°45' E 004°05'612.7
2017-Dec-08 06:31N 52°41' E 003°56'612.3
2017-Dec-08 06:01N 52°37' E 003°49'1512.4
2017-Dec-08 04:47N 52°26' E 003°33'6210.7
2017-Dec-07 23:01N 51°53' E 002°08'0 8.4
2017-Dec-07 23:00N 51°53' E 002°08'5 9.9
2017-Dec-07 22:30N 51°50' E 002°00'5 9.8
2017-Dec-07 22:00N 51°49' E 001°53'4 7.4
2017-Dec-07 21:30N 51°49' E 001°47'5 9.8
2017-Dec-07 21:00N 51°51' E 001°40'4 7.6
2017-Dec-07 20:30N 51°50' E 001°34'714.4
2017-Dec-07 20:00N 51°43' E 001°29'816.8
2017-Dec-07 19:30N 51°37' E 001°20'917.4
2017-Dec-07 19:00N 51°32' E 001°08'917.6
2017-Dec-07 18:30N 51°29' E 000°55'918.1
2017-Dec-07 18:00N 51°30' E 000°41'816.1
2017-Dec-07 17:31N 51°29' E 000°28'4 8.6
2017-Dec-07 17:01N 51°27' E 000°22'0 0.0
2017-Dec-07 16:31N 51°27' E 000°22'0 0.0
2017-Dec-07 16:01N 51°27' E 000°22'0 0.0
2017-Dec-07 15:31N 51°27' E 000°22'0 0.0
2017-Dec-07 15:01N 51°27' E 000°22'0 0.0
2017-Dec-07 14:30N 51°27' E 000°22'0 0.0
2017-Dec-07 14:01N 51°27' E 000°22'0 0.0
2017-Dec-07 13:31N 51°27' E 000°22'0 0.0
2017-Dec-07 13:00N 51°27' E 000°22'0 0.0
2017-Dec-07 12:31N 51°27' E 000°22'0 0.0
2017-Dec-07 12:01N 51°27' E 000°22'0 0.0
2017-Dec-07 11:31N 51°27' E 000°22'0 0.0
2017-Dec-07 11:01N 51°27' E 000°22'0 0.0
2017-Dec-07 10:31N 51°27' E 000°22'0 0.0
2017-Dec-07 10:01N 51°27' E 000°22'0 0.0
2017-Dec-07 09:31N 51°27' E 000°22'0 0.0
2017-Dec-07 09:00N 51°27' E 000°22'0 0.0
2017-Dec-07 08:31N 51°27' E 000°22'0 0.0
2017-Dec-07 08:00N 51°27' E 000°22'0 0.0
2017-Dec-07 07:31N 51°27' E 000°22'0 0.0
2017-Dec-07 07:01N 51°27' E 000°22'0 0.0
2017-Dec-07 06:30N 51°27' E 000°22'0 0.1
2017-Dec-07 06:00N 51°27' E 000°22'2 4.5
2017-Dec-07 05:30N 51°27' E 000°25'5 9.4
2017-Dec-07 05:00N 51°30' E 000°31'713.5
2017-Dec-07 04:30N 51°30' E 000°42'2214.4
2017-Dec-07 02:59N 51°35' E 001°16'714.9
2017-Dec-07 02:30N 51°40' E 001°24'714.9
2017-Dec-07 02:01N 51°46' E 001°32'815.5
2017-Dec-07 01:31N 51°54' E 001°34'4 8.1
2017-Dec-07 01:00N 51°58' E 001°33'713.8
2017-Dec-07 00:31N 52°03' E 001°41'815.8
2017-Dec-07 00:01N 52°06' E 001°52'2513.4
2017-Dec-06 22:10N 52°29' E 002°10'213.2
2017-Dec-06 22:00N 52°30' E 002°12'  
2017-Dec-04 07:52N 56°01' W 003°25'410.1
2017-Dec-04 07:30N 56°01' W 003°19'815.8
2017-Dec-04 07:00N 56°04' W 003°05'510.8
2017-Dec-04 06:30N 56°05' W 002°56'815.3
2017-Dec-04 06:01N 56°07' W 002°43'713.2
2017-Dec-04 05:30N 56°07' W 002°31'611.1
2017-Dec-04 05:00N 56°10' W 002°22'612.7
2017-Dec-04 04:30N 56°16' W 002°19'612.6
2017-Dec-04 04:00N 56°21' W 002°14'613.0
2017-Dec-04 03:30N 56°27' W 002°08'713.3
2017-Dec-04 03:00N 56°33' W 002°03'713.6
2017-Dec-04 02:30N 56°39' W 001°57'713.9
2017-Dec-04 02:01N 56°45' W 001°51'714.2
2017-Dec-04 01:30N 56°52' W 001°47'714.3
2017-Dec-04 01:01N 56°59' W 001°43'714.6
2017-Dec-04 00:31N 57°06' W 001°40'714.6
2017-Dec-04 00:01N 57°12' W 001°35'61 3.3
2017-Dec-03 05:10N 57°49' W 003°07'513.0
2017-Dec-03 04:49N 57°49' W 002°58'812.8
2017-Dec-03 04:11N 57°48' W 002°43'212.9
2017-Dec-03 04:01N 57°48' W 002°39'38913.0
2017-Dec-01 21:58N 51°50' E 001°48'1410.0
2017-Dec-01 20:31N 51°42' E 001°28'015.5
2017-Dec-01 20:30N 51°42' E 001°28'1015.0
2017-Dec-01 19:51N 51°35' E 001°16'514.7
2017-Dec-01 19:29N 51°33' E 001°08'715.0
2017-Dec-01 18:59N 51°29' E 000°58'  
Track history (hours):
 
Tides and Currents Weather Stations Pressure Air Temp Water Temp Dewpoint Dewpoint Depression Visibility Wind Speed Wind Dir Waves Ship Positions

Black Watch

Last reported at 2017-Dec-11 16:59 UTC. Time now 2017-Dec-12 08:10 UTC.
Position N 53°07' E 008°45'.

Length 205 m; draft 7.5 m.

Type: Passenger vessel. MMSI: 311166000.

Date/timePositionNaut miles runAvg speedWind from/ knotsBaromVisibWave heightAir tempDewpointWater temp
2017-Dec-11 16:59N 53°07' E 008°45'0 0.0
2017-Dec-11 16:29N 53°07' E 008°45'0 0.0
2017-Dec-11 15:59N 53°07' E 008°45'0 0.0
2017-Dec-11 15:29N 53°07' E 008°45'0 0.0
2017-Dec-11 14:59N 53°07' E 008°45'0 0.0
2017-Dec-11 14:29N 53°07' E 008°45'0 0.0
2017-Dec-11 13:59N 53°07' E 008°45'0 0.0
2017-Dec-11 13:29N 53°07' E 008°45'0 0.0
2017-Dec-11 12:59N 53°07' E 008°45'0 0.0
2017-Dec-11 12:29N 53°07' E 008°45'0 0.0
2017-Dec-11 11:59N 53°07' E 008°45'0 0.0
2017-Dec-11 11:29N 53°07' E 008°45'0 0.0
2017-Dec-11 10:59N 53°07' E 008°45'0 0.0
2017-Dec-11 10:29N 53°07' E 008°45'0 0.0
2017-Dec-11 09:59N 53°07' E 008°45'0 0.0
2017-Dec-11 09:29N 53°07' E 008°45'0 0.0
2017-Dec-11 08:59N 53°07' E 008°45'0 0.0
2017-Dec-11 08:29N 53°07' E 008°45'0 0.0
2017-Dec-11 07:59N 53°07' E 008°45'0 0.0
2017-Dec-11 07:29N 53°07' E 008°45'0 0.0
2017-Dec-11 06:59N 53°07' E 008°45'0 0.0
2017-Dec-11 06:29N 53°07' E 008°45'0 0.0
2017-Dec-11 05:59N 53°07' E 008°45'0 0.0
2017-Dec-11 05:29N 53°07' E 008°45'0 0.0
2017-Dec-11 04:59N 53°07' E 008°45'0 0.0
2017-Dec-11 04:29N 53°07' E 008°45'0 0.0
2017-Dec-11 03:59N 53°07' E 008°45'0 0.0
2017-Dec-11 03:29N 53°07' E 008°45'0 0.0
2017-Dec-11 02:59N 53°07' E 008°45'0 0.0
2017-Dec-11 02:29N 53°07' E 008°45'0 0.0
2017-Dec-11 01:59N 53°07' E 008°45'0 0.0
2017-Dec-11 01:29N 53°07' E 008°45'0 0.0
2017-Dec-11 00:59N 53°07' E 008°45'0 0.0
2017-Dec-11 00:29N 53°07' E 008°45'0 0.0
2017-Dec-10 23:59N 53°07' E 008°45'0 0.0
2017-Dec-10 23:29N 53°07' E 008°45'0 0.0
2017-Dec-10 22:59N 53°07' E 008°45'0 0.0
2017-Dec-10 22:29N 53°07' E 008°45'0 0.0
2017-Dec-10 21:59N 53°07' E 008°45'0 0.0
2017-Dec-10 21:29N 53°07' E 008°45'0 0.0
2017-Dec-10 20:59N 53°07' E 008°45'0 0.0
2017-Dec-10 20:29N 53°07' E 008°45'0 0.0
2017-Dec-10 19:59N 53°07' E 008°45'0 0.0
2017-Dec-10 19:30N 53°07' E 008°45'0 0.3
2017-Dec-10 19:00N 53°06' E 008°45'3 6.0
2017-Dec-10 18:31N 53°07' E 008°40'4 8.6
2017-Dec-10 18:01N 53°10' E 008°35'510.0
2017-Dec-10 17:30N 53°14' E 008°29'612.4
2017-Dec-10 17:01N 53°20' E 008°30'714.4
2017-Dec-10 16:30N 53°27' E 008°29'611.5
2017-Dec-10 16:01N 53°32' E 008°34'611.1
2017-Dec-10 15:31N 53°37' E 008°29'917.9
2017-Dec-10 15:00N 53°43' E 008°17'917.8
2017-Dec-10 14:30N 53°49' E 008°07'917.1
2017-Dec-10 14:00N 53°52' E 007°53'5 9.2
2017-Dec-10 13:28N 53°57' E 007°53'511.5
2017-Dec-10 13:00N 53°59' E 008°01'810.2
2017-Dec-10 12:11N 54°01' E 008°15'211.8
2017-Dec-10 11:59N 54°00' E 008°19'715.2
2017-Dec-10 11:30N 53°58' E 008°31'815.7
2017-Dec-10 11:00N 53°54' E 008°42'815.3
2017-Dec-10 10:30N 53°51' E 008°54'816.8
2017-Dec-10 10:01N 53°53' E 009°07'713.0
2017-Dec-10 09:30N 53°52' E 009°18'816.0
2017-Dec-10 09:00N 53°45' E 009°25'714.1
2017-Dec-10 08:30N 53°39' E 009°31'713.4
2017-Dec-10 08:00N 53°34' E 009°40'510.2
2017-Dec-10 07:31N 53°33' E 009°48'4 8.7
2017-Dec-10 07:00N 53°33' E 009°55'1 2.0
2017-Dec-10 06:29N 53°32' E 009°57'1 1.2
2017-Dec-10 06:00N 53°33' E 009°56'0 0.0
2017-Dec-10 05:30N 53°33' E 009°56'0 0.0
2017-Dec-10 05:00N 53°33' E 009°56'0 0.0
2017-Dec-10 04:30N 53°33' E 009°56'0 0.0
2017-Dec-10 04:00N 53°33' E 009°56'0 0.0
2017-Dec-10 03:30N 53°33' E 009°56'0 0.0
2017-Dec-10 03:00N 53°33' E 009°56'0 0.0
2017-Dec-10 02:30N 53°33' E 009°56'0 0.0
2017-Dec-10 02:00N 53°33' E 009°56'0 0.0
2017-Dec-10 01:30N 53°33' E 009°56'0 0.0
2017-Dec-10 01:00N 53°33' E 009°56'0 0.0
2017-Dec-10 00:30N 53°33' E 009°56'0 0.0
2017-Dec-10 00:00N 53°33' E 009°56'0 0.0
2017-Dec-09 23:30N 53°33' E 009°56'0 0.0
2017-Dec-09 23:00N 53°33' E 009°56'0 0.0
2017-Dec-09 22:30N 53°33' E 009°56'0 0.0
2017-Dec-09 22:00N 53°33' E 009°56'0 0.0
2017-Dec-09 21:30N 53°33' E 009°56'0 0.0
2017-Dec-09 21:00N 53°33' E 009°56'0 0.0
2017-Dec-09 20:30N 53°33' E 009°56'0 0.0
2017-Dec-09 20:00N 53°33' E 009°56'0 0.0
2017-Dec-09 19:27N 53°33' E 009°56'0 0.0
2017-Dec-09 19:00N 53°33' E 009°56'0 0.0
2017-Dec-09 18:30N 53°33' E 009°56'0 0.0
2017-Dec-09 18:00N 53°33' E 009°56'0 0.0
2017-Dec-09 17:30N 53°33' E 009°56'0 0.0
2017-Dec-09 17:00N 53°33' E 009°56'0 0.0
2017-Dec-09 16:30N 53°33' E 009°56'0 0.0
2017-Dec-09 16:00N 53°33' E 009°56'0 0.0
2017-Dec-09 15:30N 53°33' E 009°56'0 0.0
2017-Dec-09 14:57N 53°33' E 009°56'0 0.0
2017-Dec-09 14:30N 53°33' E 009°56'0 0.0
2017-Dec-09 14:00N 53°33' E 009°56'0 0.0
2017-Dec-09 13:27N 53°33' E 009°56'0 0.0
2017-Dec-09 13:00N 53°33' E 009°56'0 0.0
2017-Dec-09 12:30N 53°33' E 009°56'0 0.0
2017-Dec-09 12:00N 53°33' E 009°56'0 0.0
2017-Dec-09 11:30N 53°33' E 009°56'0 0.0
2017-Dec-09 11:00N 53°33' E 009°56'0 0.0
2017-Dec-09 10:30N 53°33' E 009°56'0 0.0
2017-Dec-09 10:00N 53°33' E 009°56'0 0.0
2017-Dec-09 09:30N 53°33' E 009°56'0 0.0
2017-Dec-09 09:00N 53°33' E 009°56'0 0.0
2017-Dec-09 08:27N 53°33' E 009°56'0 0.0
2017-Dec-09 08:00N 53°33' E 009°56'0 0.0
2017-Dec-09 07:30N 53°33' E 009°56'0 0.0
2017-Dec-09 07:00N 53°33' E 009°56'0 0.0
2017-Dec-09 06:31N 53°33' E 009°56'2 4.3
2017-Dec-09 06:01N 53°32' E 009°53'4 8.6
2017-Dec-09 05:31N 53°34' E 009°46'612.0
2017-Dec-09 05:01N 53°36' E 009°36'612.7
2017-Dec-09 04:30N 53°41' E 009°30'612.3
2017-Dec-09 04:01N 53°46' E 009°24'713.1
2017-Dec-09 03:30N 53°51' E 009°18'612.7
2017-Dec-09 03:01N 53°53' E 009°08'611.5
2017-Dec-09 02:30N 53°51' E 008°59'612.5
2017-Dec-09 02:00N 53°50' E 008°48'612.2
2017-Dec-09 01:30N 53°55' E 008°41'611.9
2017-Dec-09 01:00N 53°58' E 008°32'713.4
2017-Dec-09 00:30N 53°60' E 008°21'612.3
2017-Dec-09 00:00N 53°59' E 008°11'510.4
2017-Dec-08 23:30N 53°59' E 008°02'4 7.2
2017-Dec-08 23:00N 53°59' E 007°56'4 8.9
2017-Dec-08 22:30N 53°58' E 007°48'510.2
2017-Dec-08 22:00N 53°57' E 007°40'510.6
2017-Dec-08 21:30N 53°55' E 007°31'510.4
2017-Dec-08 21:00N 53°54' E 007°23'66 9.6
2017-Dec-08 14:05N 53°35' E 005°35'210.2
2017-Dec-08 13:50N 53°34' E 005°31'310.0
2017-Dec-08 13:31N 53°33' E 005°26'510.3
2017-Dec-08 13:01N 53°32' E 005°18'5 9.7
2017-Dec-08 12:31N 53°30' E 005°10'5 9.7
2017-Dec-08 12:01N 53°29' E 005°02'5 9.4
2017-Dec-08 11:30N 53°27' E 004°55'510.9
2017-Dec-08 11:01N 53°25' E 004°47'510.5
2017-Dec-08 10:30N 53°21' E 004°41'610.6
2017-Dec-08 09:55N 53°16' E 004°35'511.5
2017-Dec-08 09:30N 53°11' E 004°32'611.8
2017-Dec-08 09:01N 53°06' E 004°27'612.4
2017-Dec-08 08:31N 53°01' E 004°22'612.4
2017-Dec-08 08:01N 52°55' E 004°17'612.5
2017-Dec-08 07:31N 52°50' E 004°12'612.8
2017-Dec-08 07:01N 52°45' E 004°05'612.7
2017-Dec-08 06:31N 52°41' E 003°56'612.3
2017-Dec-08 06:01N 52°37' E 003°49'1512.4
2017-Dec-08 04:47N 52°26' E 003°33'6210.7
2017-Dec-07 23:01N 51°53' E 002°08'0 8.4
2017-Dec-07 23:00N 51°53' E 002°08'5 9.9
2017-Dec-07 22:30N 51°50' E 002°00'5 9.8
2017-Dec-07 22:00N 51°49' E 001°53'4 7.4
2017-Dec-07 21:30N 51°49' E 001°47'5 9.8
2017-Dec-07 21:00N 51°51' E 001°40'4 7.6
2017-Dec-07 20:30N 51°50' E 001°34'714.4
2017-Dec-07 20:00N 51°43' E 001°29'816.8
2017-Dec-07 19:30N 51°37' E 001°20'917.4
2017-Dec-07 19:00N 51°32' E 001°08'917.6
2017-Dec-07 18:30N 51°29' E 000°55'918.1
2017-Dec-07 18:00N 51°30' E 000°41'816.1
2017-Dec-07 17:31N 51°29' E 000°28'4 8.6
2017-Dec-07 17:01N 51°27' E 000°22'0 0.0
2017-Dec-07 16:31N 51°27' E 000°22'0 0.0
2017-Dec-07 16:01N 51°27' E 000°22'0 0.0
2017-Dec-07 15:31N 51°27' E 000°22'0 0.0
2017-Dec-07 15:01N 51°27' E 000°22'0 0.0
2017-Dec-07 14:30N 51°27' E 000°22'0 0.0
2017-Dec-07 14:01N 51°27' E 000°22'0 0.0
2017-Dec-07 13:31N 51°27' E 000°22'0 0.0
2017-Dec-07 13:00N 51°27' E 000°22'0 0.0
2017-Dec-07 12:31N 51°27' E 000°22'0 0.0
2017-Dec-07 12:01N 51°27' E 000°22'0 0.0
2017-Dec-07 11:31N 51°27' E 000°22'0 0.0
2017-Dec-07 11:01N 51°27' E 000°22'0 0.0
2017-Dec-07 10:31N 51°27' E 000°22'0 0.0
2017-Dec-07 10:01N 51°27' E 000°22'0 0.0
2017-Dec-07 09:31N 51°27' E 000°22'0 0.0
2017-Dec-07 09:00N 51°27' E 000°22'0 0.0
2017-Dec-07 08:31N 51°27' E 000°22'0 0.0
2017-Dec-07 08:00N 51°27' E 000°22'0 0.0
2017-Dec-07 07:31N 51°27' E 000°22'0 0.0
2017-Dec-07 07:01N 51°27' E 000°22'0 0.0
2017-Dec-07 06:30N 51°27' E 000°22'0 0.1
2017-Dec-07 06:00N 51°27' E 000°22'2 4.5
2017-Dec-07 05:30N 51°27' E 000°25'5 9.4
2017-Dec-07 05:00N 51°30' E 000°31'713.5
2017-Dec-07 04:30N 51°30' E 000°42'2214.4
2017-Dec-07 02:59N 51°35' E 001°16'714.9
2017-Dec-07 02:30N 51°40' E 001°24'714.9
2017-Dec-07 02:01N 51°46' E 001°32'815.5
2017-Dec-07 01:31N 51°54' E 001°34'4 8.1
2017-Dec-07 01:00N 51°58' E 001°33'713.8
2017-Dec-07 00:31N 52°03' E 001°41'815.8
2017-Dec-07 00:01N 52°06' E 001°52'2513.4
2017-Dec-06 22:10N 52°29' E 002°10'213.2
2017-Dec-06 22:00N 52°30' E 002°12'  
2017-Dec-04 07:52N 56°01' W 003°25'410.1
2017-Dec-04 07:30N 56°01' W 003°19'815.8
2017-Dec-04 07:00N 56°04' W 003°05'510.8
2017-Dec-04 06:30N 56°05' W 002°56'815.3
2017-Dec-04 06:01N 56°07' W 002°43'713.2
2017-Dec-04 05:30N 56°07' W 002°31'611.1
2017-Dec-04 05:00N 56°10' W 002°22'612.7
2017-Dec-04 04:30N 56°16' W 002°19'612.6
2017-Dec-04 04:00N 56°21' W 002°14'613.0
2017-Dec-04 03:30N 56°27' W 002°08'713.3
2017-Dec-04 03:00N 56°33' W 002°03'713.6
2017-Dec-04 02:30N 56°39' W 001°57'713.9
2017-Dec-04 02:01N 56°45' W 001°51'714.2
2017-Dec-04 01:30N 56°52' W 001°47'714.3
2017-Dec-04 01:01N 56°59' W 001°43'714.6
2017-Dec-04 00:31N 57°06' W 001°40'714.6
2017-Dec-04 00:01N 57°12' W 001°35'61 3.3
2017-Dec-03 05:10N 57°49' W 003°07'513.0
2017-Dec-03 04:49N 57°49' W 002°58'812.8
2017-Dec-03 04:11N 57°48' W 002°43'212.9
2017-Dec-03 04:01N 57°48' W 002°39'38913.0
2017-Dec-01 21:58N 51°50' E 001°48'1410.0
2017-Dec-01 20:31N 51°42' E 001°28'015.5
2017-Dec-01 20:30N 51°42' E 001°28'1015.0
2017-Dec-01 19:51N 51°35' E 001°16'514.7
2017-Dec-01 19:29N 51°33' E 001°08'715.0
2017-Dec-01 18:59N 51°29' E 000°58'  

Dump ship's entire track history